Time,TemperatureF,DewpointF,PressureIn,WindDirection,WindDirectionDegrees,WindSpeedMPH,WindSpeedGustMPH,Humidity,HourlyPrecipIn,Conditions,Clouds,dailyrainin,SolarRadiationWatts/m^2,SoftwareType,DateUTC
2013-01-26 00:04:00,16.6,10.1,30.23,WNW,291,7.0,8.0,75,0.00,,,0.00,0,Wunderground v.1.15,2013-01-26 06:04:00,
2013-01-26 00:10:00,16.4,9.9,30.23,NW,324,6.0,7.0,75,0.00,,,0.00,0,Wunderground v.1.15,2013-01-26 06:10:00,
2013-01-26 00:16:00,16.3,9.8,30.24,WNW,293,7.0,7.0,75,0.00,,,0.00,0,Wunderground v.1.15,2013-01-26 06:16:00,
2013-01-26 00:25:00,16.1,9.6,30.24,NW,315,7.0,7.0,75,0.00,,,0.00,0,Wunderground v.1.15,2013-01-26 06:25:00,
2013-01-26 00:30:00,15.9,9.4,30.24,NW,323,6.0,6.0,75,0.00,,,0.00,0,Wunderground v.1.15,2013-01-26 06:30:00,
2013-01-26 00:35:00,15.8,9.6,30.24,NW,314,6.0,6.0,76,0.00,,,0.00,0,Wunderground v.1.15,2013-01-26 06:35:00,
2013-01-26 00:41:00,15.7,9.5,30.24,NW,315,6.0,10.0,76,0.00,,,0.00,0,Wunderground v.1.15,2013-01-26 06:41:00,
2013-01-26 00:49:00,15.5,9.0,30.24,NW,305,6.0,6.0,75,0.00,,,0.00,0,Wunderground v.1.15,2013-01-26 06:49:00,
2013-01-26 00:55:00,15.3,9.1,30.24,NW,311,6.0,7.0,76,0.00,,,0.00,0,Wunderground v.1.15,2013-01-26 06:55:00,
2013-01-26 01:01:00,15.2,9.0,30.25,WNW,296,6.0,6.0,76,0.00,,,0.00,0,Wunderground v.1.15,2013-01-26 07:01:00,
2013-01-26 01:06:00,15.1,8.9,30.25,WNW,286,6.0,7.0,76,0.00,,,0.00,0,Wunderground v.1.15,2013-01-26 07:06:00,
2013-01-26 01:11:00,15.0,8.8,30.25,WNW,300,5.0,5.0,76,0.00,,,0.00,0,Wunderground v.1.15,2013-01-26 07:11:00,
2013-01-26 01:19:00,14.8,8.6,30.26,NW,311,4.0,7.0,76,0.00,,,0.00,0,Wunderground v.1.15,2013-01-26 07:19:00,
2013-01-26 01:25:00,14.7,8.5,30.26,West,269,5.0,6.0,76,0.00,,,0.00,0,Wunderground v.1.15,2013-01-26 07:25:00,
2013-01-26 01:31:00,14.6,8.4,30.26,NW,306,4.0,5.0,76,0.00,,,0.00,0,Wunderground v.1.15,2013-01-26 07:31:00,
2013-01-26 01:37:00,14.4,8.2,30.26,WNW,290,5.0,5.0,76,0.00,,,0.00,0,Wunderground v.1.15,2013-01-26 07:37:00,
2013-01-26 01:44:00,14.2,8.0,30.26,WNW,294,5.0,10.0,76,0.00,,,0.00,0,Wunderground v.1.15,2013-01-26 07:44:00,
2013-01-26 01:49:00,14.2,8.0,30.27,NW,307,6.0,10.0,76,0.00,,,0.00,0,Wunderground v.1.15,2013-01-26 07:49:00,
2013-01-26 01:55:00,14.0,7.8,30.27,WNW,293,6.0,6.0,76,0.00,,,0.00,0,Wunderground v.1.15,2013-01-26 07:55:00,
2013-01-26 02:01:00,14.0,7.8,30.27,WNW,296,5.0,8.0,76,0.00,,,0.00,0,Wunderground v.1.15,2013-01-26 08:01:00,
2013-01-26 02:09:00,13.8,7.6,30.27,WNW,297,6.0,9.0,76,0.00,,,0.00,0,Wunderground v.1.15,2013-01-26 08:09:00,
2013-01-26 02:14:00,13.7,7.5,30.27,NW,318,6.0,6.0,76,0.00,,,0.00,0,Wunderground v.1.15,2013-01-26 08:14:00,
2013-01-26 02:20:00,13.6,7.4,30.28,NW,315,6.0,6.0,76,0.00,,,0.00,0,Wunderground v.1.15,2013-01-26 08:20:00,
2013-01-26 02:25:00,13.5,7.3,30.28,WNW,295,6.0,6.0,76,0.00,,,0.00,0,Wunderground v.1.15,2013-01-26 08:25:00,
2013-01-26 02:31:00,13.4,7.2,30.28,NW,320,6.0,7.0,76,0.00,,,0.00,0,Wunderground v.1.15,2013-01-26 08:31:00,
2013-01-26 02:36:00,13.3,7.1,30.28,NW,323,7.0,7.0,76,0.00,,,0.00,0,Wunderground v.1.15,2013-01-26 08:36:00,
2013-01-26 02:44:00,13.1,7.0,30.28,NW,318,6.0,6.0,76,0.00,,,0.00,0,Wunderground v.1.15,2013-01-26 08:44:00,
2013-01-26 02:49:00,13.0,6.9,30.28,NW,319,6.0,7.0,76,0.00,,,0.00,0,Wunderground v.1.15,2013-01-26 08:49:00,
2013-01-26 02:55:00,12.9,6.8,30.28,NW,305,6.0,6.0,76,0.00,,,0.00,0,Wunderground v.1.15,2013-01-26 08:55:00,
2013-01-26 03:01:00,12.7,6.9,30.29,NW,320,5.0,6.0,77,0.00,,,0.00,0,Wunderground v.1.15,2013-01-26 09:01:00,
2013-01-26 03:09:00,12.7,6.9,30.29,NW,304,5.0,6.0,77,0.00,,,0.00,0,Wunderground v.1.15,2013-01-26 09:09:00,
2013-01-26 03:15:00,12.5,6.7,30.29,WNW,294,5.0,8.0,77,0.00,,,0.00,0,Wunderground v.1.15,2013-01-26 09:15:00,
2013-01-26 03:20:00,12.4,6.6,30.29,NW,304,5.0,6.0,77,0.00,,,0.00,0,Wunderground v.1.15,2013-01-26 09:20:00,
2013-01-26 03:26:00,12.4,6.6,30.29,WNW,294,5.0,6.0,77,0.00,,,0.00,0,Wunderground v.1.15,2013-01-26 09:26:00,
2013-01-26 03:35:00,12.3,6.5,30.31,NW,310,5.0,5.0,77,0.00,,,0.00,0,Wunderground v.1.15,2013-01-26 09:35:00,
2013-01-26 03:40:00,12.2,6.4,30.31,WNW,288,5.0,6.0,77,0.00,,,0.00,0,Wunderground v.1.15,2013-01-26 09:40:00,
2013-01-26 03:46:00,12.1,6.3,30.31,NW,304,5.0,6.0,77,0.00,,,0.00,0,Wunderground v.1.15,2013-01-26 09:46:00,
2013-01-26 03:54:00,11.9,6.1,30.31,NW,308,5.0,6.0,77,0.00,,,0.00,0,Wunderground v.1.15,2013-01-26 09:54:00,
2013-01-26 03:59:00,11.8,6.0,30.31,NW,306,5.0,6.0,77,0.00,,,0.00,0,Wunderground v.1.15,2013-01-26 09:59:00,
2013-01-26 04:05:00,11.7,5.9,30.31,NW,306,4.0,8.0,77,0.00,,,0.00,0,Wunderground v.1.15,2013-01-26 10:05:00,
2013-01-26 04:11:00,11.7,5.9,30.31,NW,316,5.0,6.0,77,0.00,,,0.00,0,Wunderground v.1.15,2013-01-26 10:11:00,
2013-01-26 04:19:00,11.5,6.0,30.31,NW,325,4.0,6.0,78,0.00,,,0.00,0,Wunderground v.1.15,2013-01-26 10:19:00,
2013-01-26 04:24:00,11.4,5.9,30.31,NW,322,4.0,5.0,78,0.00,,,0.00,0,Wunderground v.1.15,2013-01-26 10:24:00,
2013-01-26 04:30:00,11.3,5.8,30.31,NNW,336,4.0,5.0,78,0.00,,,0.00,0,Wunderground v.1.15,2013-01-26 10:30:00,
2013-01-26 04:36:00,11.2,5.7,30.31,NW,319,4.0,6.0,78,0.00,,,0.00,0,Wunderground v.1.15,2013-01-26 10:36:00,
2013-01-26 04:41:00,11.1,5.6,30.31,NW,324,4.0,5.0,78,0.00,,,0.00,0,Wunderground v.1.15,2013-01-26 10:41:00,
2013-01-26 04:46:00,11.0,5.5,30.31,NNW,327,4.0,5.0,78,0.00,,,0.00,0,Wunderground v.1.15,2013-01-26 10:46:00,
2013-01-26 04:52:00,11.0,5.5,30.31,NW,314,4.0,4.0,78,0.00,,,0.00,0,Wunderground v.1.15,2013-01-26 10:52:00,
2013-01-26 04:59:00,10.9,5.7,30.31,NW,315,4.0,4.0,79,0.00,,,0.00,0,Wunderground v.1.15,2013-01-26 10:59:00,
2013-01-26 05:05:00,10.8,5.6,30.31,WNW,296,4.0,4.0,79,0.00,,,0.00,0,Wunderground v.1.15,2013-01-26 11:05:00,
2013-01-26 05:10:00,10.8,5.6,30.31,NW,313,3.0,4.0,79,0.00,,,0.00,0,Wunderground v.1.15,2013-01-26 11:10:00,
2013-01-26 05:15:00,10.7,5.5,30.32,WNW,300,3.0,4.0,79,0.00,,,0.00,0,Wunderground v.1.15,2013-01-26 11:15:00,
2013-01-26 05:21:00,10.6,5.4,30.32,NNW,331,2.0,2.0,79,0.00,,,0.00,0,Wunderground v.1.15,2013-01-26 11:21:00,
2013-01-26 05:26:00,10.6,5.4,30.32,NW,311,2.0,4.0,79,0.00,,,0.00,0,Wunderground v.1.15,2013-01-26 11:26:00,
2013-01-26 05:31:00,10.5,5.3,30.33,WNW,302,2.0,2.0,79,0.00,,,0.00,0,Wunderground v.1.15,2013-01-26 11:31:00,
2013-01-26 05:36:00,10.4,5.2,30.33,WNW,291,2.0,2.0,79,0.00,,,0.00,0,Wunderground v.1.15,2013-01-26 11:36:00,
2013-01-26 05:44:00,10.2,5.0,30.33,WNW,291,1.0,2.0,79,0.00,,,0.00,0,Wunderground v.1.15,2013-01-26 11:44:00,
2013-01-26 05:50:00,10.1,4.9,30.33,WNW,291,2.0,2.0,79,0.00,,,0.00,0,Wunderground v.1.15,2013-01-26 11:50:00,
2013-01-26 05:55:00,10.0,4.8,30.33,WNW,290,2.0,2.0,79,0.00,,,0.00,0,Wunderground v.1.15,2013-01-26 11:55:00,
2013-01-26 06:01:00,9.8,4.9,30.34,WNW,290,2.0,2.0,80,0.00,,,0.00,0,Wunderground v.1.15,2013-01-26 12:01:00,
2013-01-26 06:06:00,9.7,4.8,30.34,WNW,290,1.0,2.0,80,0.00,,,0.00,0,Wunderground v.1.15,2013-01-26 12:06:00,
2013-01-26 06:11:00,9.5,4.6,30.34,NW,323,2.0,3.0,80,0.00,,,0.00,0,Wunderground v.1.15,2013-01-26 12:11:00,
2013-01-26 06:17:00,9.4,4.5,30.34,NW,314,2.0,5.0,80,0.00,,,0.00,0,Wunderground v.1.15,2013-01-26 12:17:00,
2013-01-26 06:24:00,9.3,4.6,30.34,NW,314,2.0,2.0,81,0.00,,,0.00,0,Wunderground v.1.15,2013-01-26 12:24:00,
2013-01-26 06:30:00,9.3,4.6,30.36,WNW,301,2.0,3.0,81,0.00,,,0.00,0,Wunderground v.1.15,2013-01-26 12:30:00,
2013-01-26 06:35:00,9.3,4.6,30.36,WNW,301,2.0,3.0,81,0.00,,,0.00,0,Wunderground v.1.15,2013-01-26 12:35:00,
2013-01-26 06:40:00,9.3,4.4,30.36,WNW,300,2.0,3.0,80,0.00,,,0.00,0,Wunderground v.1.15,2013-01-26 12:40:00,
2013-01-26 06:46:00,9.3,4.4,30.36,WNW,294,3.0,3.0,80,0.00,,,0.00,0,Wunderground v.1.15,2013-01-26 12:46:00,
2013-01-26 06:51:00,9.4,4.5,30.36,WNW,294,2.0,3.0,80,0.00,,,0.00,0,Wunderground v.1.15,2013-01-26 12:51:00,
2013-01-26 06:59:00,9.5,4.6,30.36,WNW,295,2.0,3.0,80,0.00,,,0.00,0,Wunderground v.1.15,2013-01-26 12:59:00,
2013-01-26 07:04:00,9.4,4.5,30.36,WNW,293,3.0,3.0,80,0.00,,,0.00,0,Wunderground v.1.15,2013-01-26 13:04:00,
2013-01-26 07:10:00,9.5,4.6,30.36,West,273,3.0,3.0,80,0.00,,,0.00,0,Wunderground v.1.15,2013-01-26 13:10:00,
2013-01-26 07:16:00,9.6,4.7,30.38,WNW,301,3.0,4.0,80,0.00,,,0.00,0,Wunderground v.1.15,2013-01-26 13:16:00,
2013-01-26 07:24:00,9.5,4.6,30.38,WNW,302,3.0,3.0,80,0.00,,,0.00,7,Wunderground v.1.15,2013-01-26 13:24:00,
2013-01-26 07:30:00,9.5,4.6,30.38,NNW,344,2.0,3.0,80,0.00,,,0.00,12,Wunderground v.1.15,2013-01-26 13:30:00,
2013-01-26 07:36:00,9.4,4.5,30.38,WNW,298,2.0,3.0,80,0.00,,,0.00,18,Wunderground v.1.15,2013-01-26 13:36:00,
2013-01-26 07:42:00,9.5,4.6,30.38,WNW,294,2.0,4.0,80,0.00,,,0.00,23,Wunderground v.1.15,2013-01-26 13:42:00,
2013-01-26 07:49:00,9.6,4.7,30.39,WNW,282,4.0,4.0,80,0.00,,,0.00,26,Wunderground v.1.15,2013-01-26 13:49:00,
2013-01-26 07:54:00,9.7,4.8,30.39,WNW,299,4.0,5.0,80,0.00,,,0.00,32,Wunderground v.1.15,2013-01-26 13:54:00,
2013-01-26 08:00:00,9.8,4.9,30.39,WNW,292,4.0,4.0,80,0.00,,,0.00,37,Wunderground v.1.15,2013-01-26 14:00:00,
2013-01-26 08:06:00,10.0,5.1,30.39,NW,309,4.0,6.0,80,0.00,,,0.00,42,Wunderground v.1.15,2013-01-26 14:06:00,
2013-01-26 08:15:00,10.3,5.1,30.39,WNW,288,5.0,5.0,79,0.00,,,0.00,51,Wunderground v.1.15,2013-01-26 14:15:00,
2013-01-26 08:20:00,10.4,5.2,30.40,West,278,5.0,5.0,79,0.00,,,0.00,53,Wunderground v.1.15,2013-01-26 14:20:00,
2013-01-26 08:25:00,10.5,5.3,30.40,WNW,300,5.0,5.0,79,0.00,,,0.00,53,Wunderground v.1.15,2013-01-26 14:25:00,
2013-01-26 08:31:00,10.6,5.1,30.41,West,277,5.0,5.0,78,0.00,,,0.00,53,Wunderground v.1.15,2013-01-26 14:31:00,
2013-01-26 08:36:00,10.7,5.2,30.41,WNW,287,5.0,10.0,78,0.00,,,0.00,54,Wunderground v.1.15,2013-01-26 14:36:00,
2013-01-26 08:44:00,10.7,5.2,30.41,WNW,288,5.0,7.0,78,0.00,,,0.00,63,Wunderground v.1.15,2013-01-26 14:44:00,
2013-01-26 08:50:00,10.8,5.3,30.41,NW,304,6.0,6.0,78,0.00,,,0.00,214,Wunderground v.1.15,2013-01-26 14:50:00,
2013-01-26 08:55:00,11.0,5.5,30.41,WNW,302,6.0,7.0,78,0.00,,,0.00,250,Wunderground v.1.15,2013-01-26 14:55:00,
2013-01-26 09:00:00,11.0,5.5,30.41,NW,323,5.0,8.0,78,0.00,,,0.00,214,Wunderground v.1.15,2013-01-26 15:00:00,
2013-01-26 09:09:00,11.4,5.6,30.41,NW,322,6.0,9.0,77,0.00,,,0.00,292,Wunderground v.1.15,2013-01-26 15:09:00,
2013-01-26 09:15:00,11.7,5.9,30.41,NW,304,7.0,9.0,77,0.00,,,0.00,265,Wunderground v.1.15,2013-01-26 15:15:00,
2013-01-26 09:21:00,12.0,5.9,30.42,NW,306,7.0,7.0,76,0.00,,,0.00,308,Wunderground v.1.15,2013-01-26 15:21:00,
2013-01-26 09:26:00,12.2,6.4,30.42,NW,315,6.0,7.0,77,0.00,,,0.00,329,Wunderground v.1.15,2013-01-26 15:26:00,
2013-01-26 09:34:00,12.6,6.2,30.42,NW,316,5.0,6.0,75,0.00,,,0.00,329,Wunderground v.1.15,2013-01-26 15:34:00,
2013-01-26 09:39:00,12.9,6.5,30.42,NW,311,4.0,6.0,75,0.00,,,0.00,292,Wunderground v.1.15,2013-01-26 15:39:00,
2013-01-26 09:45:00,13.1,6.4,30.43,WNW,296,4.0,5.0,74,0.00,,,0.00,339,Wunderground v.1.15,2013-01-26 15:45:00,
2013-01-26 09:50:00,13.2,6.2,30.43,WNW,302,4.0,6.0,73,0.00,,,0.00,369,Wunderground v.1.15,2013-01-26 15:50:00,
2013-01-26 09:56:00,13.4,6.4,30.43,NW,316,5.0,8.0,73,0.00,,,0.00,385,Wunderground v.1.15,2013-01-26 15:56:00,
2013-01-26 10:01:00,13.7,6.6,30.43,WNW,300,5.0,7.0,73,0.00,,,0.00,381,Wunderground v.1.15,2013-01-26 16:01:00,
2013-01-26 10:09:00,14.0,6.6,30.43,WNW,296,5.0,7.0,72,0.00,,,0.00,410,Wunderground v.1.15,2013-01-26 16:09:00,
2013-01-26 10:15:00,14.2,6.8,30.43,WNW,296,4.0,5.0,72,0.00,,,0.00,413,Wunderground v.1.15,2013-01-26 16:15:00,
2013-01-26 10:20:00,14.5,7.1,30.43,WNW,301,4.0,4.0,72,0.00,,,0.00,422,Wunderground v.1.15,2013-01-26 16:20:00,
2013-01-26 10:26:00,14.9,7.5,30.43,WNW,295,3.0,4.0,72,0.00,,,0.00,431,Wunderground v.1.15,2013-01-26 16:26:00,
2013-01-26 10:34:00,15.5,7.8,30.44,West,278,4.0,5.0,71,0.00,,,0.00,439,Wunderground v.1.15,2013-01-26 16:34:00,
2013-01-26 10:40:00,15.9,7.8,30.44,NW,311,4.0,4.0,70,0.00,,,0.00,450,Wunderground v.1.15,2013-01-26 16:40:00,
2013-01-26 10:45:00,16.0,7.9,30.44,WNW,294,4.0,4.0,70,0.00,,,0.00,462,Wunderground v.1.15,2013-01-26 16:45:00,
2013-01-26 10:51:00,16.3,7.9,30.44,WNW,287,4.0,4.0,69,0.00,,,0.00,466,Wunderground v.1.15,2013-01-26 16:51:00,
2013-01-26 10:56:00,16.5,7.8,30.44,WNW,298,4.0,5.0,68,0.00,,,0.00,476,Wunderground v.1.15,2013-01-26 16:56:00,
2013-01-26 11:02:00,16.8,7.7,30.44,West,281,4.0,5.0,67,0.00,,,0.00,476,Wunderground v.1.15,2013-01-26 17:02:00,
2013-01-26 11:09:00,17.3,7.9,30.44,NW,312,4.0,5.0,66,0.00,,,0.00,483,Wunderground v.1.15,2013-01-26 17:09:00,
2013-01-26 11:15:00,17.9,8.8,30.44,West,266,4.0,5.0,67,0.00,,,0.00,489,Wunderground v.1.15,2013-01-26 17:15:00,
2013-01-26 11:20:00,18.1,8.3,30.44,West,281,4.0,6.0,65,0.00,,,0.00,494,Wunderground v.1.15,2013-01-26 17:20:00,
2013-01-26 11:26:00,18.3,8.1,30.44,NW,304,4.0,6.0,64,0.00,,,0.00,497,Wunderground v.1.15,2013-01-26 17:26:00,
2013-01-26 11:32:00,18.6,8.8,30.43,WNW,286,3.0,4.0,65,0.00,,,0.00,499,Wunderground v.1.15,2013-01-26 17:32:00,
2013-01-26 11:39:00,19.0,8.5,30.43,WSW,257,4.0,5.0,63,0.00,,,0.00,504,Wunderground v.1.15,2013-01-26 17:39:00,
2013-01-26 11:44:00,19.0,7.4,30.43,West,281,4.0,6.0,60,0.00,,,0.00,499,Wunderground v.1.15,2013-01-26 17:44:00,
2013-01-26 11:50:00,19.2,7.2,30.42,NW,317,4.0,4.0,59,0.00,,,0.00,508,Wunderground v.1.15,2013-01-26 17:50:00,
2013-01-26 11:56:00,19.5,7.9,30.42,WNW,301,3.0,4.0,60,0.00,,,0.00,510,Wunderground v.1.15,2013-01-26 17:56:00,
2013-01-26 12:02:00,19.7,7.3,30.42,NNE,15,3.0,4.0,58,0.00,,,0.00,388,Wunderground v.1.15,2013-01-26 18:02:00,
2013-01-26 12:07:00,19.9,7.1,30.42,NNW,344,4.0,5.0,57,0.00,,,0.00,192,Wunderground v.1.15,2013-01-26 18:07:00,
2013-01-26 12:15:00,20.3,8.2,30.42,NNW,344,3.0,4.0,59,0.00,,,0.00,364,Wunderground v.1.15,2013-01-26 18:15:00,
2013-01-26 12:20:00,20.5,7.7,30.41,NW,323,2.0,2.0,57,0.00,,,0.00,176,Wunderground v.1.15,2013-01-26 18:20:00,
2013-01-26 12:26:00,20.6,7.8,30.41,NNW,338,2.0,5.0,57,0.00,,,0.00,348,Wunderground v.1.15,2013-01-26 18:26:00,
2013-01-26 12:31:00,20.6,7.8,30.42,WSW,244,3.0,3.0,57,0.00,,,0.00,424,Wunderground v.1.15,2013-01-26 18:31:00,
2013-01-26 12:39:00,21.0,8.1,30.42,NNW,344,3.0,4.0,57,0.00,,,0.00,429,Wunderground v.1.15,2013-01-26 18:39:00,
2013-01-26 12:44:00,21.2,7.9,30.42,NW,315,2.0,3.0,56,0.00,,,0.00,482,Wunderground v.1.15,2013-01-26 18:44:00,
2013-01-26 12:50:00,21.3,8.4,30.41,WNW,292,2.0,3.0,57,0.00,,,0.00,211,Wunderground v.1.15,2013-01-26 18:50:00,
2013-01-26 12:56:00,21.3,7.6,30.41,WSW,242,2.0,4.0,55,0.00,,,0.00,197,Wunderground v.1.15,2013-01-26 18:56:00,
2013-01-26 13:02:00,21.5,7.4,30.41,West,261,2.0,2.0,54,0.00,,,0.00,251,Wunderground v.1.15,2013-01-26 19:02:00,
2013-01-26 13:09:00,21.7,7.6,30.41,West,261,1.0,2.0,54,0.00,,,0.00,383,Wunderground v.1.15,2013-01-26 19:09:00,
2013-01-26 13:15:00,22.6,7.6,30.41,West,261,0.0,1.0,52,0.00,,,0.00,285,Wunderground v.1.15,2013-01-26 19:15:00,
2013-01-26 13:21:00,22.4,7.4,30.41,West,261,0.0,0.0,52,0.00,,,0.00,334,Wunderground v.1.15,2013-01-26 19:21:00,
2013-01-26 13:26:00,22.2,7.6,30.41,West,261,0.0,0.0,53,0.00,,,0.00,276,Wunderground v.1.15,2013-01-26 19:26:00,
2013-01-26 13:31:00,23.3,7.4,30.41,NNE,29,0.0,2.0,50,0.00,,,0.00,330,Wunderground v.1.15,2013-01-26 19:31:00,
2013-01-26 13:40:00,22.8,7.4,30.41,NNE,29,1.0,1.0,51,0.00,,,0.00,443,Wunderground v.1.15,2013-01-26 19:40:00,
2013-01-26 13:45:00,23.1,8.1,30.41,WNW,298,1.0,5.0,52,0.00,,,0.00,432,Wunderground v.1.15,2013-01-26 19:45:00,
2013-01-26 13:51:00,22.9,8.3,30.41,WNW,298,2.0,4.0,53,0.00,,,0.00,422,Wunderground v.1.15,2013-01-26 19:51:00,
2013-01-26 13:57:00,23.1,8.1,30.41,WNW,298,2.0,4.0,52,0.00,,,0.00,413,Wunderground v.1.15,2013-01-26 19:57:00,
2013-01-26 14:05:00,23.5,8.9,30.41,WNW,298,1.0,1.0,53,0.00,,,0.00,399,Wunderground v.1.15,2013-01-26 20:05:00,
2013-01-26 14:11:00,23.5,9.7,30.41,WNW,298,1.0,2.0,55,0.00,,,0.00,388,Wunderground v.1.15,2013-01-26 20:11:00,
2013-01-26 14:16:00,23.5,8.4,30.41,WNW,298,1.0,2.0,52,0.00,,,0.00,378,Wunderground v.1.15,2013-01-26 20:16:00,
2013-01-26 14:24:00,24.8,8.8,30.41,WNW,298,0.0,1.0,50,0.00,,,0.00,366,Wunderground v.1.15,2013-01-26 20:24:00,
2013-01-26 14:29:00,24.9,8.9,30.41,WNW,298,0.0,0.0,50,0.00,,,0.00,353,Wunderground v.1.15,2013-01-26 20:29:00,
2013-01-26 14:35:00,25.0,9.0,30.41,WNW,298,0.0,0.0,50,0.00,,,0.00,343,Wunderground v.1.15,2013-01-26 20:35:00,
2013-01-26 14:41:00,25.0,9.0,30.41,WNW,298,0.0,0.0,50,0.00,,,0.00,330,Wunderground v.1.15,2013-01-26 20:41:00,
2013-01-26 14:49:00,24.2,8.7,30.42,WNW,298,0.0,0.0,51,0.00,,,0.00,308,Wunderground v.1.15,2013-01-26 20:49:00,
2013-01-26 14:55:00,24.5,8.0,30.42,WNW,298,0.0,1.0,49,0.00,,,0.00,278,Wunderground v.1.15,2013-01-26 20:55:00,
2013-01-26 15:00:00,25.1,8.1,30.42,WNW,298,0.0,1.0,48,0.00,,,0.00,251,Wunderground v.1.15,2013-01-26 21:00:00,
2013-01-26 15:05:00,24.5,7.6,30.42,WNW,298,0.0,1.0,48,0.00,,,0.00,223,Wunderground v.1.15,2013-01-26 21:05:00,
2013-01-26 15:11:00,24.5,8.0,30.42,WNW,298,0.0,0.0,49,0.00,,,0.00,200,Wunderground v.1.15,2013-01-26 21:11:00,
2013-01-26 15:19:00,25.4,9.3,30.40,WNW,298,0.0,2.0,50,0.00,,,0.00,169,Wunderground v.1.15,2013-01-26 21:19:00,
2013-01-26 15:25:00,25.0,9.0,30.40,South,169,1.0,1.0,50,0.00,,,0.00,169,Wunderground v.1.15,2013-01-26 21:25:00,
2013-01-26 15:30:00,25.7,9.2,30.41,South,169,0.0,1.0,49,0.00,,,0.00,162,Wunderground v.1.15,2013-01-26 21:30:00,
2013-01-26 15:35:00,25.1,8.1,30.41,South,170,1.0,3.0,48,0.00,,,0.00,156,Wunderground v.1.15,2013-01-26 21:35:00,
2013-01-26 15:40:00,24.5,8.9,30.41,South,170,2.0,2.0,51,0.00,,,0.00,149,Wunderground v.1.15,2013-01-26 21:40:00,
2013-01-26 15:46:00,24.5,8.0,30.42,SW,214,2.0,3.0,49,0.00,,,0.00,83,Wunderground v.1.15,2013-01-26 21:46:00,
2013-01-26 15:52:00,24.6,8.6,30.42,SW,214,2.0,2.0,50,0.00,,,0.00,60,Wunderground v.1.15,2013-01-26 21:52:00,
2013-01-26 15:59:00,24.4,8.8,30.42,SW,214,1.0,3.0,51,0.00,,,0.00,53,Wunderground v.1.15,2013-01-26 21:59:00,
2013-01-26 16:06:00,24.6,8.1,30.42,SW,214,3.0,3.0,49,0.00,,,0.00,102,Wunderground v.1.15,2013-01-26 22:06:00,
2013-01-26 16:12:00,24.6,8.6,30.42,SW,214,3.0,3.0,50,0.00,,,0.00,102,Wunderground v.1.15,2013-01-26 22:12:00,
2013-01-26 16:19:00,25.1,9.0,30.42,SW,214,2.0,3.0,50,0.00,,,0.00,58,Wunderground v.1.15,2013-01-26 22:19:00,
2013-01-26 16:24:00,25.2,9.1,30.42,SW,214,0.0,1.0,50,0.00,,,0.00,33,Wunderground v.1.15,2013-01-26 22:24:00,
2013-01-26 16:30:00,24.8,8.8,30.40,SE,128,1.0,1.0,50,0.00,,,0.00,25,Wunderground v.1.15,2013-01-26 22:30:00,
2013-01-26 16:36:00,24.4,8.8,30.40,SE,128,1.0,1.0,51,0.00,,,0.00,19,Wunderground v.1.15,2013-01-26 22:36:00,
2013-01-26 16:41:00,24.2,9.5,30.40,SE,128,0.0,1.0,53,0.00,,,0.00,19,Wunderground v.1.15,2013-01-26 22:41:00,
2013-01-26 16:46:00,24.1,10.2,30.41,SE,128,0.0,1.0,55,0.00,,,0.00,12,Wunderground v.1.15,2013-01-26 22:46:00,
2013-01-26 16:51:00,23.9,9.2,30.41,SE,129,1.0,1.0,53,0.00,,,0.00,7,Wunderground v.1.15,2013-01-26 22:51:00,
2013-01-26 16:59:00,23.7,9.5,30.41,SE,129,1.0,1.0,54,0.00,,,0.00,0,Wunderground v.1.15,2013-01-26 22:59:00,
2013-01-26 17:05:00,23.3,9.5,30.41,SE,129,0.0,0.0,55,0.00,,,0.00,0,Wunderground v.1.15,2013-01-26 23:05:00,
2013-01-26 17:10:00,23.1,8.9,30.41,SE,129,0.0,0.0,54,0.00,,,0.00,0,Wunderground v.1.15,2013-01-26 23:10:00,
2013-01-26 17:15:00,23.1,8.9,30.41,SE,129,0.0,0.0,54,0.00,,,0.00,0,Wunderground v.1.15,2013-01-26 23:15:00,
2013-01-26 17:20:00,22.7,8.5,30.41,SE,129,0.0,0.0,54,0.00,,,0.00,0,Wunderground v.1.15,2013-01-26 23:20:00,
2013-01-26 17:26:00,22.5,9.1,30.41,SE,129,0.0,0.0,56,0.00,,,0.00,0,Wunderground v.1.15,2013-01-26 23:26:00,
2013-01-26 17:32:00,22.2,8.9,30.41,SE,128,0.0,1.0,56,0.00,,,0.00,0,Wunderground v.1.15,2013-01-26 23:32:00,
2013-01-26 17:39:00,22.1,8.8,30.41,SE,129,0.0,1.0,56,0.00,,,0.00,0,Wunderground v.1.15,2013-01-26 23:39:00,
2013-01-26 17:45:00,22.0,9.1,30.42,SE,128,0.0,0.0,57,0.00,,,0.00,0,Wunderground v.1.15,2013-01-26 23:45:00,
2013-01-26 17:51:00,22.1,9.2,30.42,SE,129,0.0,0.0,57,0.00,,,0.00,0,Wunderground v.1.15,2013-01-26 23:51:00,
2013-01-26 17:56:00,22.2,9.3,30.42,SE,128,0.0,0.0,57,0.00,,,0.00,0,Wunderground v.1.15,2013-01-26 23:56:00,
2013-01-26 18:04:00,22.1,9.2,30.40,SE,129,1.0,1.0,57,0.00,,,0.00,0,Wunderground v.1.15,2013-01-27 00:04:00,
2013-01-26 18:10:00,21.7,8.8,30.40,SE,129,0.0,0.0,57,0.00,,,0.00,0,Wunderground v.1.15,2013-01-27 00:10:00,
2013-01-26 18:16:00,21.6,9.1,30.41,SE,129,0.0,0.0,58,0.00,,,0.00,0,Wunderground v.1.15,2013-01-27 00:16:00,
2013-01-26 18:21:00,21.7,9.2,30.41,SE,129,0.0,0.0,58,0.00,,,0.00,0,Wunderground v.1.15,2013-01-27 00:21:00,
2013-01-26 18:26:00,21.8,9.3,30.41,SE,129,0.0,0.0,58,0.00,,,0.00,0,Wunderground v.1.15,2013-01-27 00:26:00,
2013-01-26 18:32:00,21.9,9.7,30.41,SE,129,0.0,0.0,59,0.00,,,0.00,0,Wunderground v.1.15,2013-01-27 00:32:00,
2013-01-26 18:37:00,21.9,10.1,30.41,SE,129,0.0,0.0,60,0.00,,,0.00,0,Wunderground v.1.15,2013-01-27 00:37:00,
2013-01-26 18:44:00,22.1,10.3,30.41,SE,129,0.0,1.0,60,0.00,,,0.00,0,Wunderground v.1.15,2013-01-27 00:44:00,
2013-01-26 18:49:00,22.3,10.1,30.42,SE,129,0.0,0.0,59,0.00,,,0.00,0,Wunderground v.1.15,2013-01-27 00:49:00,
2013-01-26 18:55:00,22.5,10.3,30.42,SE,129,0.0,1.0,59,0.00,,,0.00,0,Wunderground v.1.15,2013-01-27 00:55:00,
2013-01-26 19:00:00,22.6,10.0,30.42,SE,129,0.0,0.0,58,0.00,,,0.00,0,Wunderground v.1.15,2013-01-27 01:00:00,
2013-01-26 19:06:00,22.6,9.6,30.42,SE,129,0.0,1.0,57,0.00,,,0.00,0,Wunderground v.1.15,2013-01-27 01:06:00,
2013-01-26 19:12:00,22.6,10.4,30.42,SE,129,0.0,0.0,59,0.00,,,0.00,0,Wunderground v.1.15,2013-01-27 01:12:00,
2013-01-26 19:19:00,22.4,9.8,30.42,SE,129,0.0,2.0,58,0.00,,,0.00,0,Wunderground v.1.15,2013-01-27 01:19:00,
2013-01-26 19:24:00,22.3,10.1,30.42,SE,129,1.0,1.0,59,0.00,,,0.00,0,Wunderground v.1.15,2013-01-27 01:24:00,
2013-01-26 19:30:00,22.1,9.6,30.42,SE,129,0.0,0.0,58,0.00,,,0.00,0,Wunderground v.1.15,2013-01-27 01:30:00,
2013-01-26 19:36:00,22.1,9.9,30.42,SE,129,0.0,0.0,59,0.00,,,0.00,0,Wunderground v.1.15,2013-01-27 01:36:00,
2013-01-26 19:41:00,22.1,9.9,30.42,SE,129,0.0,0.0,59,0.00,,,0.00,0,Wunderground v.1.15,2013-01-27 01:41:00,
2013-01-26 19:49:00,22.1,9.9,30.42,SE,129,0.0,1.0,59,0.00,,,0.00,0,Wunderground v.1.15,2013-01-27 01:49:00,
2013-01-26 19:55:00,22.2,10.4,30.42,SE,129,0.0,0.0,60,0.00,,,0.00,0,Wunderground v.1.15,2013-01-27 01:55:00,
2013-01-26 20:01:00,22.3,10.9,30.42,SE,129,0.0,0.0,61,0.00,,,0.00,0,Wunderground v.1.15,2013-01-27 02:01:00,
2013-01-26 20:09:00,22.3,10.5,30.42,SE,129,0.0,1.0,60,0.00,,,0.00,0,Wunderground v.1.15,2013-01-27 02:09:00,
2013-01-26 20:15:00,22.3,10.5,30.42,SE,129,0.0,0.0,60,0.00,,,0.00,0,Wunderground v.1.15,2013-01-27 02:15:00,
2013-01-26 20:21:00,22.4,10.2,30.42,SE,130,1.0,2.0,59,0.00,,,0.00,0,Wunderground v.1.15,2013-01-27 02:21:00,
2013-01-26 20:26:00,22.4,10.2,30.42,SE,130,1.0,2.0,59,0.00,,,0.00,0,Wunderground v.1.15,2013-01-27 02:26:00,
2013-01-26 20:31:00,22.4,10.2,30.42,SE,130,0.0,1.0,59,0.00,,,0.00,0,Wunderground v.1.15,2013-01-27 02:31:00,
2013-01-26 20:37:00,22.4,10.2,30.42,SE,130,0.0,1.0,59,0.00,,,0.00,0,Wunderground v.1.15,2013-01-27 02:37:00,
2013-01-26 20:44:00,22.4,10.2,30.42,SE,130,0.0,1.0,59,0.00,,,0.00,0,Wunderground v.1.15,2013-01-27 02:44:00,
2013-01-26 20:50:00,22.4,10.2,30.43,SE,130,0.0,0.0,59,0.00,,,0.00,0,Wunderground v.1.15,2013-01-27 02:50:00,
2013-01-26 20:55:00,22.4,10.2,30.43,SE,130,0.0,0.0,59,0.00,,,0.00,0,Wunderground v.1.15,2013-01-27 02:55:00,
2013-01-26 21:00:00,22.4,10.6,30.42,SE,130,0.0,0.0,60,0.00,,,0.00,0,Wunderground v.1.15,2013-01-27 03:00:00,
2013-01-26 21:06:00,22.4,10.6,30.42,SE,130,0.0,1.0,60,0.00,,,0.00,0,Wunderground v.1.15,2013-01-27 03:06:00,
2013-01-26 21:12:00,22.3,10.5,30.42,ESE,111,0.0,2.0,60,0.00,,,0.00,0,Wunderground v.1.15,2013-01-27 03:12:00,
2013-01-26 21:19:00,22.3,10.9,30.42,SE,140,1.0,3.0,61,0.00,,,0.00,0,Wunderground v.1.15,2013-01-27 03:19:00,
2013-01-26 21:25:00,22.3,10.9,30.42,ESE,107,1.0,2.0,61,0.00,,,0.00,0,Wunderground v.1.15,2013-01-27 03:25:00,
2013-01-26 21:31:00,22.4,11.0,30.42,ESE,107,1.0,1.0,61,0.00,,,0.00,0,Wunderground v.1.15,2013-01-27 03:31:00,
2013-01-26 21:37:00,22.4,11.3,30.42,ESE,106,1.0,2.0,62,0.00,,,0.00,0,Wunderground v.1.15,2013-01-27 03:37:00,
2013-01-26 21:44:00,22.4,11.0,30.42,SE,127,1.0,1.0,61,0.00,,,0.00,0,Wunderground v.1.15,2013-01-27 03:44:00,
2013-01-26 21:50:00,22.5,11.4,30.43,SE,126,0.0,0.0,62,0.00,,,0.00,0,Wunderground v.1.15,2013-01-27 03:50:00,
2013-01-26 21:55:00,22.5,11.4,30.43,SE,127,1.0,2.0,62,0.00,,,0.00,0,Wunderground v.1.15,2013-01-27 03:55:00,
2013-01-26 22:01:00,22.5,11.4,30.42,SE,127,1.0,1.0,62,0.00,,,0.00,0,Wunderground v.1.15,2013-01-27 04:01:00,
2013-01-26 22:06:00,22.6,11.5,30.42,SE,128,1.0,2.0,62,0.00,,,0.00,0,Wunderground v.1.15,2013-01-27 04:06:00,
2013-01-26 22:11:00,22.6,11.5,30.42,SE,128,1.0,2.0,62,0.00,,,0.00,0,Wunderground v.1.15,2013-01-27 04:11:00,
2013-01-26 22:17:00,22.7,11.6,30.42,SE,128,0.0,2.0,62,0.00,,,0.00,0,Wunderground v.1.15,2013-01-27 04:17:00,
2013-01-26 22:25:00,22.7,11.6,30.42,SE,128,0.0,1.0,62,0.00,,,0.00,0,Wunderground v.1.15,2013-01-27 04:25:00,
2013-01-26 22:30:00,22.7,11.6,30.42,ESE,121,1.0,2.0,62,0.00,,,0.00,0,Wunderground v.1.15,2013-01-27 04:30:00,
2013-01-26 22:35:00,22.7,11.6,30.42,ESE,119,1.0,2.0,62,0.00,,,0.00,0,Wunderground v.1.15,2013-01-27 04:35:00,
2013-01-26 22:41:00,22.7,12.0,30.42,SE,127,1.0,1.0,63,0.00,,,0.00,0,Wunderground v.1.15,2013-01-27 04:41:00,
2013-01-26 22:46:00,22.7,12.0,30.41,East,99,1.0,3.0,63,0.00,,,0.00,0,Wunderground v.1.15,2013-01-27 04:46:00,
2013-01-26 22:51:00,22.7,12.0,30.41,SE,131,1.0,3.0,63,0.00,,,0.00,0,Wunderground v.1.15,2013-01-27 04:51:00,
2013-01-26 22:57:00,22.7,12.0,30.41,SE,125,1.0,3.0,63,0.00,,,0.00,0,Wunderground v.1.15,2013-01-27 04:57:00,
2013-01-26 23:00:00,22.7,12.0,30.42,SE,125,1.0,1.0,63,0.00,,,0.00,0,Wunderground v.1.15,2013-01-27 05:00:00,
2013-01-26 23:04:00,22.8,12.1,30.42,SE,144,1.0,1.0,63,0.00,,,0.00,0,Wunderground v.1.15,2013-01-27 05:04:00,
2013-01-26 23:05:00,22.7,12.0,30.42,SE,144,1.0,1.0,63,0.00,,,0.00,0,Wunderground v.1.15,2013-01-27 05:05:00,
2013-01-26 23:09:00,22.7,12.3,30.42,SE,140,1.0,3.0,64,0.00,,,0.00,0,Wunderground v.1.15,2013-01-27 05:09:00,
2013-01-26 23:14:00,22.8,12.4,30.42,SE,140,1.0,2.0,64,0.00,,,0.00,0,Wunderground v.1.15,2013-01-27 05:14:00,
2013-01-26 23:19:00,22.8,12.4,30.42,SE,139,1.0,2.0,64,0.00,,,0.00,0,Wunderground v.1.15,2013-01-27 05:19:00,
2013-01-26 23:25:00,22.9,12.5,30.42,East,93,1.0,3.0,64,0.00,,,0.00,0,Wunderground v.1.15,2013-01-27 05:25:00,
2013-01-26 23:30:00,22.9,12.5,30.41,ESE,116,1.0,1.0,64,0.00,,,0.00,0,Wunderground v.1.15,2013-01-27 05:30:00,
2013-01-26 23:35:00,23.0,13.0,30.41,SE,133,1.0,1.0,65,0.00,,,0.00,0,Wunderground v.1.15,2013-01-27 05:35:00,
2013-01-26 23:41:00,23.0,13.0,30.41,SSE,148,0.0,0.0,65,0.00,,,0.00,0,Wunderground v.1.15,2013-01-27 05:41:00,
2013-01-26 23:49:00,23.1,13.1,30.41,SE,136,1.0,1.0,65,0.00,,,0.00,0,Wunderground v.1.15,2013-01-27 05:49:00,
2013-01-26 23:55:00,23.1,13.1,30.41,SE,142,1.0,3.0,65,0.00,,,0.00,0,Wunderground v.1.15,2013-01-27 05:55:00,